sensor_id;sensor_type;location;lat;lon;timestamp;P1;durP1;ratioP1;P2;durP2;ratioP2
13335;SDS011;6737;51.480;11.962;2022-09-27T00:00:43;0.77;;;0.77;;
13335;SDS011;6737;51.480;11.962;2022-09-27T00:03:09;1.03;;;0.80;;
13335;SDS011;6737;51.480;11.962;2022-09-27T00:05:35;0.83;;;0.73;;
13335;SDS011;6737;51.480;11.962;2022-09-27T00:08:01;1.00;;;0.80;;
13335;SDS011;6737;51.480;11.962;2022-09-27T00:10:28;0.67;;;0.67;;
13335;SDS011;6737;51.480;11.962;2022-09-27T00:12:54;0.90;;;0.80;;
13335;SDS011;6737;51.480;11.962;2022-09-27T00:15:20;0.97;;;0.70;;
13335;SDS011;6737;51.480;11.962;2022-09-27T00:17:46;1.87;;;0.80;;
13335;SDS011;6737;51.480;11.962;2022-09-27T00:20:16;0.70;;;0.70;;
13335;SDS011;6737;51.480;11.962;2022-09-27T00:22:45;1.07;;;0.73;;
13335;SDS011;6737;51.480;11.962;2022-09-27T00:25:12;1.10;;;0.90;;
13335;SDS011;6737;51.480;11.962;2022-09-27T00:27:39;1.50;;;1.07;;
13335;SDS011;6737;51.480;11.962;2022-09-27T00:30:05;0.83;;;0.80;;
13335;SDS011;6737;51.480;11.962;2022-09-27T00:32:31;0.70;;;0.70;;
13335;SDS011;6737;51.480;11.962;2022-09-27T00:34:57;0.80;;;0.70;;
13335;SDS011;6737;51.480;11.962;2022-09-27T00:37:23;1.73;;;0.90;;
13335;SDS011;6737;51.480;11.962;2022-09-27T00:39:50;2.27;;;0.80;;
13335;SDS011;6737;51.480;11.962;2022-09-27T00:42:16;1.37;;;0.83;;
13335;SDS011;6737;51.480;11.962;2022-09-27T00:44:48;1.10;;;0.90;;
13335;SDS011;6737;51.480;11.962;2022-09-27T00:52:44;1.43;;;0.77;;
13335;SDS011;6737;51.480;11.962;2022-09-27T00:55:21;0.90;;;0.90;;
13335;SDS011;6737;51.480;11.962;2022-09-27T00:57:52;1.13;;;0.90;;
13335;SDS011;6737;51.480;11.962;2022-09-27T01:00:18;1.63;;;0.80;;
13335;SDS011;6737;51.480;11.962;2022-09-27T01:02:46;1.30;;;0.87;;
13335;SDS011;6737;51.480;11.962;2022-09-27T01:05:16;1.47;;;0.90;;
13335;SDS011;6737;51.480;11.962;2022-09-27T01:07:45;1.80;;;1.00;;
13335;SDS011;6737;51.480;11.962;2022-09-27T01:10:11;0.73;;;0.70;;
13335;SDS011;6737;51.480;11.962;2022-09-27T01:18:02;0.70;;;0.70;;
13335;SDS011;6737;51.480;11.962;2022-09-27T01:29:03;0.80;;;0.70;;
13335;SDS011;6737;51.480;11.962;2022-09-27T01:36:58;0.87;;;0.80;;
13335;SDS011;6737;51.480;11.962;2022-09-27T01:42:25;0.70;;;0.70;;
13335;SDS011;6737;51.480;11.962;2022-09-27T01:45:13;0.97;;;0.80;;
13335;SDS011;6737;51.480;11.962;2022-09-27T01:48:19;0.77;;;0.70;;
13335;SDS011;6737;51.480;11.962;2022-09-27T01:50:51;0.67;;;0.67;;
13335;SDS011;6737;51.480;11.962;2022-09-27T01:56:01;0.77;;;0.70;;
13335;SDS011;6737;51.480;11.962;2022-09-27T02:01:37;0.60;;;0.60;;
13335;SDS011;6737;51.480;11.962;2022-09-27T02:04:07;0.70;;;0.70;;
13335;SDS011;6737;51.480;11.962;2022-09-27T02:06:42;0.67;;;0.67;;
13335;SDS011;6737;51.480;11.962;2022-09-27T02:09:19;0.70;;;0.70;;
13335;SDS011;6737;51.480;11.962;2022-09-27T02:11:56;0.70;;;0.63;;
13335;SDS011;6737;51.480;11.962;2022-09-27T02:14:30;0.70;;;0.70;;
13335;SDS011;6737;51.480;11.962;2022-09-27T02:24:52;0.60;;;0.60;;
13335;SDS011;6737;51.480;11.962;2022-09-27T02:27:29;0.80;;;0.60;;
13335;SDS011;6737;51.480;11.962;2022-09-27T02:30:03;0.50;;;0.50;;
13335;SDS011;6737;51.480;11.962;2022-09-27T02:32:36;0.63;;;0.63;;
13335;SDS011;6737;51.480;11.962;2022-09-27T02:35:04;0.50;;;0.50;;
13335;SDS011;6737;51.480;11.962;2022-09-27T02:37:51;0.50;;;0.50;;
13335;SDS011;6737;51.480;11.962;2022-09-27T02:40:17;0.57;;;0.50;;
13335;SDS011;6737;51.480;11.962;2022-09-27T02:42:44;0.50;;;0.50;;
13335;SDS011;6737;51.480;11.962;2022-09-27T02:45:11;1.43;;;0.60;;
13335;SDS011;6737;51.480;11.962;2022-09-27T02:47:53;0.50;;;0.50;;
13335;SDS011;6737;51.480;11.962;2022-09-27T02:53:37;0.60;;;0.60;;
13335;SDS011;6737;51.480;11.962;2022-09-27T02:56:32;0.70;;;0.70;;
13335;SDS011;6737;51.480;11.962;2022-09-27T02:59:08;1.00;;;0.70;;
13335;SDS011;6737;51.480;11.962;2022-09-27T03:01:57;0.73;;;0.60;;
13335;SDS011;6737;51.480;11.962;2022-09-27T03:04:46;0.53;;;0.53;;
13335;SDS011;6737;51.480;11.962;2022-09-27T03:07:21;0.77;;;0.60;;
13335;SDS011;6737;51.480;11.962;2022-09-27T03:09:48;1.13;;;0.70;;
13335;SDS011;6737;51.480;11.962;2022-09-27T03:12:17;0.67;;;0.67;;
13335;SDS011;6737;51.480;11.962;2022-09-27T03:14:47;0.63;;;0.63;;
13335;SDS011;6737;51.480;11.962;2022-09-27T03:17:14;0.73;;;0.60;;
13335;SDS011;6737;51.480;11.962;2022-09-27T03:19:39;2.83;;;0.73;;
13335;SDS011;6737;51.480;11.962;2022-09-27T03:22:05;0.60;;;0.60;;
13335;SDS011;6737;51.480;11.962;2022-09-27T03:24:32;1.33;;;0.70;;
13335;SDS011;6737;51.480;11.962;2022-09-27T03:26:58;0.60;;;0.60;;
13335;SDS011;6737;51.480;11.962;2022-09-27T03:29:24;0.70;;;0.70;;
13335;SDS011;6737;51.480;11.962;2022-09-27T03:31:50;0.60;;;0.60;;
13335;SDS011;6737;51.480;11.962;2022-09-27T03:34:15;0.67;;;0.67;;
13335;SDS011;6737;51.480;11.962;2022-09-27T03:36:41;1.53;;;0.70;;
13335;SDS011;6737;51.480;11.962;2022-09-27T03:39:07;1.33;;;0.70;;
13335;SDS011;6737;51.480;11.962;2022-09-27T03:41:33;0.80;;;0.80;;
13335;SDS011;6737;51.480;11.962;2022-09-27T03:43:59;0.60;;;0.60;;
13335;SDS011;6737;51.480;11.962;2022-09-27T03:46:25;0.60;;;0.60;;
13335;SDS011;6737;51.480;11.962;2022-09-27T03:48:51;0.70;;;0.63;;
13335;SDS011;6737;51.480;11.962;2022-09-27T03:51:16;0.60;;;0.60;;
13335;SDS011;6737;51.480;11.962;2022-09-27T03:53:42;0.60;;;0.50;;
13335;SDS011;6737;51.480;11.962;2022-09-27T03:56:08;0.80;;;0.70;;
13335;SDS011;6737;51.480;11.962;2022-09-27T03:58:34;0.60;;;0.60;;
13335;SDS011;6737;51.480;11.962;2022-09-27T04:01:00;0.60;;;0.60;;
13335;SDS011;6737;51.480;11.962;2022-09-27T04:03:26;0.60;;;0.60;;
13335;SDS011;6737;51.480;11.962;2022-09-27T04:05:52;1.80;;;0.70;;
13335;SDS011;6737;51.480;11.962;2022-09-27T04:08:19;0.80;;;0.60;;
13335;SDS011;6737;51.480;11.962;2022-09-27T04:10:48;0.73;;;0.60;;
13335;SDS011;6737;51.480;11.962;2022-09-27T04:13:14;0.80;;;0.70;;
13335;SDS011;6737;51.480;11.962;2022-09-27T04:15:39;0.50;;;0.50;;
13335;SDS011;6737;51.480;11.962;2022-09-27T04:18:07;0.63;;;0.63;;
13335;SDS011;6737;51.480;11.962;2022-09-27T04:20:33;1.20;;;0.80;;
13335;SDS011;6737;51.480;11.962;2022-09-27T04:23:00;0.67;;;0.60;;
13335;SDS011;6737;51.480;11.962;2022-09-27T04:25:26;0.90;;;0.70;;
13335;SDS011;6737;51.480;11.962;2022-09-27T04:27:53;0.70;;;0.70;;
13335;SDS011;6737;51.480;11.962;2022-09-27T04:30:19;0.70;;;0.60;;
13335;SDS011;6737;51.480;11.962;2022-09-27T04:32:46;1.10;;;0.70;;
13335;SDS011;6737;51.480;11.962;2022-09-27T04:35:12;0.80;;;0.63;;
13335;SDS011;6737;51.480;11.962;2022-09-27T04:37:57;0.73;;;0.70;;
13335;SDS011;6737;51.480;11.962;2022-09-27T04:40:24;0.93;;;0.70;;
13335;SDS011;6737;51.480;11.962;2022-09-27T04:42:50;0.60;;;0.60;;
13335;SDS011;6737;51.480;11.962;2022-09-27T04:45:16;1.00;;;0.70;;
13335;SDS011;6737;51.480;11.962;2022-09-27T04:47:44;0.60;;;0.60;;
13335;SDS011;6737;51.480;11.962;2022-09-27T04:50:11;1.23;;;0.70;;
13335;SDS011;6737;51.480;11.962;2022-09-27T04:52:38;2.33;;;0.60;;
13335;SDS011;6737;51.480;11.962;2022-09-27T04:55:04;0.60;;;0.60;;
13335;SDS011;6737;51.480;11.962;2022-09-27T04:57:32;0.83;;;0.60;;
13335;SDS011;6737;51.480;11.962;2022-09-27T04:59:58;0.67;;;0.67;;
13335;SDS011;6737;51.480;11.962;2022-09-27T05:02:25;0.70;;;0.70;;
13335;SDS011;6737;51.480;11.962;2022-09-27T05:04:52;0.60;;;0.60;;
13335;SDS011;6737;51.480;11.962;2022-09-27T05:07:22;0.77;;;0.67;;
13335;SDS011;6737;51.480;11.962;2022-09-27T05:09:47;0.97;;;0.80;;
13335;SDS011;6737;51.480;11.962;2022-09-27T05:12:13;0.70;;;0.70;;
13335;SDS011;6737;51.480;11.962;2022-09-27T05:14:39;0.80;;;0.70;;
13335;SDS011;6737;51.480;11.962;2022-09-27T05:17:05;0.97;;;0.63;;
13335;SDS011;6737;51.480;11.962;2022-09-27T05:19:34;0.93;;;0.77;;
13335;SDS011;6737;51.480;11.962;2022-09-27T05:22:00;0.70;;;0.70;;
13335;SDS011;6737;51.480;11.962;2022-09-27T05:24:26;0.70;;;0.70;;
13335;SDS011;6737;51.480;11.962;2022-09-27T05:26:56;0.63;;;0.63;;
13335;SDS011;6737;51.480;11.962;2022-09-27T05:29:23;0.70;;;0.70;;
13335;SDS011;6737;51.480;11.962;2022-09-27T05:31:49;0.60;;;0.60;;
13335;SDS011;6737;51.480;11.962;2022-09-27T05:34:15;0.57;;;0.53;;
13335;SDS011;6737;51.480;11.962;2022-09-27T05:36:45;0.70;;;0.60;;
13335;SDS011;6737;51.480;11.962;2022-09-27T05:39:12;3.37;;;0.80;;
13335;SDS011;6737;51.480;11.962;2022-09-27T05:41:38;0.60;;;0.60;;
13335;SDS011;6737;51.480;11.962;2022-09-27T05:44:05;1.00;;;0.90;;
13335;SDS011;6737;51.480;11.962;2022-09-27T05:46:31;1.10;;;0.90;;
13335;SDS011;6737;51.480;11.962;2022-09-27T05:48:57;0.70;;;0.70;;
13335;SDS011;6737;51.480;11.962;2022-09-27T05:51:22;0.70;;;0.70;;
13335;SDS011;6737;51.480;11.962;2022-09-27T05:53:48;0.90;;;0.80;;
13335;SDS011;6737;51.480;11.962;2022-09-27T05:56:15;2.33;;;1.50;;
13335;SDS011;6737;51.480;11.962;2022-09-27T05:58:41;1.77;;;1.10;;
13335;SDS011;6737;51.480;11.962;2022-09-27T06:01:08;0.97;;;0.80;;
13335;SDS011;6737;51.480;11.962;2022-09-27T06:03:34;0.80;;;0.80;;
13335;SDS011;6737;51.480;11.962;2022-09-27T06:06:01;1.87;;;0.70;;
13335;SDS011;6737;51.480;11.962;2022-09-27T06:08:34;1.07;;;0.80;;
13335;SDS011;6737;51.480;11.962;2022-09-27T06:11:04;1.57;;;0.90;;
13335;SDS011;6737;51.480;11.962;2022-09-27T06:13:32;1.80;;;0.90;;
13335;SDS011;6737;51.480;11.962;2022-09-27T06:16:01;1.10;;;0.90;;
13335;SDS011;6737;51.480;11.962;2022-09-27T06:18:28;1.00;;;0.70;;
13335;SDS011;6737;51.480;11.962;2022-09-27T06:20:54;1.40;;;0.80;;
13335;SDS011;6737;51.480;11.962;2022-09-27T06:23:21;1.33;;;0.90;;
13335;SDS011;6737;51.480;11.962;2022-09-27T06:25:48;1.00;;;0.80;;
13335;SDS011;6737;51.480;11.962;2022-09-27T06:28:15;1.17;;;0.90;;
13335;SDS011;6737;51.480;11.962;2022-09-27T06:30:45;1.77;;;0.90;;
13335;SDS011;6737;51.480;11.962;2022-09-27T06:33:16;1.23;;;0.93;;
13335;SDS011;6737;51.480;11.962;2022-09-27T06:35:43;0.67;;;0.67;;
13335;SDS011;6737;51.480;11.962;2022-09-27T06:38:11;0.77;;;0.73;;
13335;SDS011;6737;51.480;11.962;2022-09-27T06:40:40;0.70;;;0.70;;
13335;SDS011;6737;51.480;11.962;2022-09-27T06:43:11;0.50;;;0.50;;
13335;SDS011;6737;51.480;11.962;2022-09-27T06:45:38;2.57;;;0.50;;
13335;SDS011;6737;51.480;11.962;2022-09-27T06:48:05;0.40;;;0.40;;
13335;SDS011;6737;51.480;11.962;2022-09-27T06:50:33;0.50;;;0.50;;
13335;SDS011;6737;51.480;11.962;2022-09-27T06:53:03;0.40;;;0.40;;
13335;SDS011;6737;51.480;11.962;2022-09-27T06:55:30;0.50;;;0.50;;
13335;SDS011;6737;51.480;11.962;2022-09-27T06:57:57;0.73;;;0.50;;
13335;SDS011;6737;51.480;11.962;2022-09-27T07:00:43;0.50;;;0.50;;
13335;SDS011;6737;51.480;11.962;2022-09-27T07:03:12;0.60;;;0.60;;
13335;SDS011;6737;51.480;11.962;2022-09-27T07:05:39;1.60;;;0.60;;
13335;SDS011;6737;51.480;11.962;2022-09-27T07:08:08;0.53;;;0.53;;
13335;SDS011;6737;51.480;11.962;2022-09-27T07:10:36;0.50;;;0.50;;
13335;SDS011;6737;51.480;11.962;2022-09-27T07:13:05;0.53;;;0.53;;
13335;SDS011;6737;51.480;11.962;2022-09-27T07:15:36;0.50;;;0.50;;
13335;SDS011;6737;51.480;11.962;2022-09-27T07:18:05;0.50;;;0.50;;
13335;SDS011;6737;51.480;11.962;2022-09-27T07:20:32;0.50;;;0.50;;
13335;SDS011;6737;51.480;11.962;2022-09-27T07:23:01;0.53;;;0.53;;
13335;SDS011;6737;51.480;11.962;2022-09-27T07:25:29;0.53;;;0.50;;
13335;SDS011;6737;51.480;11.962;2022-09-27T07:27:59;0.60;;;0.53;;
13335;SDS011;6737;51.480;11.962;2022-09-27T07:30:29;0.73;;;0.60;;
13335;SDS011;6737;51.480;11.962;2022-09-27T07:32:56;0.50;;;0.50;;
13335;SDS011;6737;51.480;11.962;2022-09-27T07:35:27;0.60;;;0.60;;
13335;SDS011;6737;51.480;11.962;2022-09-27T07:37:54;0.50;;;0.50;;
13335;SDS011;6737;51.480;11.962;2022-09-27T07:40:21;0.70;;;0.70;;
13335;SDS011;6737;51.480;11.962;2022-09-27T07:42:47;0.50;;;0.50;;
13335;SDS011;6737;51.480;11.962;2022-09-27T07:45:22;0.43;;;0.43;;
13335;SDS011;6737;51.480;11.962;2022-09-27T07:47:49;0.40;;;0.40;;
13335;SDS011;6737;51.480;11.962;2022-09-27T07:50:15;0.43;;;0.43;;
13335;SDS011;6737;51.480;11.962;2022-09-27T07:52:43;0.50;;;0.50;;
13335;SDS011;6737;51.480;11.962;2022-09-27T07:55:10;1.30;;;0.50;;
13335;SDS011;6737;51.480;11.962;2022-09-27T07:57:37;0.57;;;0.57;;
13335;SDS011;6737;51.480;11.962;2022-09-27T08:00:04;0.57;;;0.50;;
13335;SDS011;6737;51.480;11.962;2022-09-27T08:02:32;0.73;;;0.50;;
13335;SDS011;6737;51.480;11.962;2022-09-27T08:04:58;0.50;;;0.50;;
13335;SDS011;6737;51.480;11.962;2022-09-27T08:07:24;0.50;;;0.50;;
13335;SDS011;6737;51.480;11.962;2022-09-27T08:09:51;0.30;;;0.30;;
13335;SDS011;6737;51.480;11.962;2022-09-27T08:12:17;0.50;;;0.50;;
13335;SDS011;6737;51.480;11.962;2022-09-27T08:14:48;1.27;;;0.40;;
13335;SDS011;6737;51.480;11.962;2022-09-27T08:17:14;0.50;;;0.50;;
13335;SDS011;6737;51.480;11.962;2022-09-27T08:19:41;0.50;;;0.50;;
13335;SDS011;6737;51.480;11.962;2022-09-27T08:22:09;0.50;;;0.50;;
13335;SDS011;6737;51.480;11.962;2022-09-27T08:24:39;0.40;;;0.40;;
13335;SDS011;6737;51.480;11.962;2022-09-27T08:27:05;0.50;;;0.50;;
13335;SDS011;6737;51.480;11.962;2022-09-27T08:29:32;0.40;;;0.40;;
13335;SDS011;6737;51.480;11.962;2022-09-27T08:31:59;0.40;;;0.40;;
13335;SDS011;6737;51.480;11.962;2022-09-27T08:34:24;0.40;;;0.40;;
13335;SDS011;6737;51.480;11.962;2022-09-27T08:36:52;0.40;;;0.40;;
13335;SDS011;6737;51.480;11.962;2022-09-27T08:39:20;0.60;;;0.50;;
13335;SDS011;6737;51.480;11.962;2022-09-27T08:42:09;0.50;;;0.50;;
13335;SDS011;6737;51.480;11.962;2022-09-27T08:47:56;0.50;;;0.50;;
13335;SDS011;6737;51.480;11.962;2022-09-27T08:50:58;0.80;;;0.50;;
13335;SDS011;6737;51.480;11.962;2022-09-27T08:55:56;0.43;;;0.43;;
13335;SDS011;6737;51.480;11.962;2022-09-27T08:58:31;0.40;;;0.40;;
13335;SDS011;6737;51.480;11.962;2022-09-27T09:01:03;0.50;;;0.50;;
13335;SDS011;6737;51.480;11.962;2022-09-27T09:03:35;0.50;;;0.43;;
13335;SDS011;6737;51.480;11.962;2022-09-27T09:06:10;0.40;;;0.40;;
13335;SDS011;6737;51.480;11.962;2022-09-27T09:08:49;0.43;;;0.43;;
13335;SDS011;6737;51.480;11.962;2022-09-27T09:17:36;0.30;;;0.30;;
13335;SDS011;6737;51.480;11.962;2022-09-27T09:20:30;0.30;;;0.30;;
13335;SDS011;6737;51.480;11.962;2022-09-27T09:25:50;0.77;;;0.50;;
13335;SDS011;6737;51.480;11.962;2022-09-27T09:28:38;0.57;;;0.40;;
13335;SDS011;6737;51.480;11.962;2022-09-27T09:31:28;0.40;;;0.40;;
13335;SDS011;6737;51.480;11.962;2022-09-27T09:34:15;0.33;;;0.33;;
13335;SDS011;6737;51.480;11.962;2022-09-27T09:37:22;0.60;;;0.40;;
13335;SDS011;6737;51.480;11.962;2022-09-27T09:39:55;0.40;;;0.40;;
13335;SDS011;6737;51.480;11.962;2022-09-27T09:42:33;0.50;;;0.50;;
13335;SDS011;6737;51.480;11.962;2022-09-27T09:45:06;0.40;;;0.40;;
13335;SDS011;6737;51.480;11.962;2022-09-27T09:48:04;0.40;;;0.40;;
13335;SDS011;6737;51.480;11.962;2022-09-27T09:50:43;0.47;;;0.47;;
13335;SDS011;6737;51.480;11.962;2022-09-27T09:53:14;0.40;;;0.40;;
13335;SDS011;6737;51.480;11.962;2022-09-27T09:55:47;0.50;;;0.50;;
13335;SDS011;6737;51.480;11.962;2022-09-27T09:58:22;0.50;;;0.50;;
13335;SDS011;6737;51.480;11.962;2022-09-27T10:00:52;0.83;;;0.50;;
13335;SDS011;6737;51.480;11.962;2022-09-27T10:03:23;0.40;;;0.40;;
13335;SDS011;6737;51.480;11.962;2022-09-27T10:05:49;0.50;;;0.50;;
13335;SDS011;6737;51.480;11.962;2022-09-27T10:08:16;1.70;;;0.40;;
13335;SDS011;6737;51.480;11.962;2022-09-27T10:10:44;0.40;;;0.40;;
13335;SDS011;6737;51.480;11.962;2022-09-27T10:13:32;0.57;;;0.57;;
13335;SDS011;6737;51.480;11.962;2022-09-27T10:16:02;0.93;;;0.60;;
13335;SDS011;6737;51.480;11.962;2022-09-27T10:18:29;0.40;;;0.40;;
13335;SDS011;6737;51.480;11.962;2022-09-27T10:20:56;0.93;;;0.50;;
13335;SDS011;6737;51.480;11.962;2022-09-27T10:23:25;0.50;;;0.50;;
13335;SDS011;6737;51.480;11.962;2022-09-27T10:25:53;0.60;;;0.60;;
13335;SDS011;6737;51.480;11.962;2022-09-27T10:28:33;0.40;;;0.40;;
13335;SDS011;6737;51.480;11.962;2022-09-27T10:31:05;1.30;;;0.60;;
13335;SDS011;6737;51.480;11.962;2022-09-27T10:33:33;0.50;;;0.50;;
13335;SDS011;6737;51.480;11.962;2022-09-27T10:36:02;0.50;;;0.50;;
13335;SDS011;6737;51.480;11.962;2022-09-27T10:46:59;0.60;;;0.60;;
13335;SDS011;6737;51.480;11.962;2022-09-27T10:49:38;0.57;;;0.57;;
13335;SDS011;6737;51.480;11.962;2022-09-27T10:52:15;0.63;;;0.63;;
13335;SDS011;6737;51.480;11.962;2022-09-27T10:54:54;0.77;;;0.70;;
13335;SDS011;6737;51.480;11.962;2022-09-27T10:57:26;0.60;;;0.60;;
13335;SDS011;6737;51.480;11.962;2022-09-27T10:59:55;0.60;;;0.60;;
13335;SDS011;6737;51.480;11.962;2022-09-27T11:02:28;0.60;;;0.60;;
13335;SDS011;6737;51.480;11.962;2022-09-27T11:07:36;1.00;;;0.70;;
13335;SDS011;6737;51.480;11.962;2022-09-27T11:10:06;0.80;;;0.60;;
13335;SDS011;6737;51.480;11.962;2022-09-27T11:13:07;0.70;;;0.70;;
13335;SDS011;6737;51.480;11.962;2022-09-27T11:32:19;0.60;;;0.60;;
13335;SDS011;6737;51.480;11.962;2022-09-27T11:41:08;1.03;;;0.70;;
13335;SDS011;6737;51.480;11.962;2022-09-27T11:46:55;0.50;;;0.50;;
13335;SDS011;6737;51.480;11.962;2022-09-27T11:50:05;0.60;;;0.60;;
13335;SDS011;6737;51.480;11.962;2022-09-27T11:58:52;0.60;;;0.60;;
13335;SDS011;6737;51.480;11.962;2022-09-27T12:01:49;0.83;;;0.60;;
13335;SDS011;6737;51.480;11.962;2022-09-27T12:04:43;0.50;;;0.50;;
13335;SDS011;6737;51.480;11.962;2022-09-27T12:07:18;0.50;;;0.50;;
13335;SDS011;6737;51.480;11.962;2022-09-27T12:10:02;0.43;;;0.43;;
13335;SDS011;6737;51.480;11.962;2022-09-27T12:12:34;0.47;;;0.47;;
13335;SDS011;6737;51.480;11.962;2022-09-27T12:15:05;0.50;;;0.50;;
13335;SDS011;6737;51.480;11.962;2022-09-27T12:17:53;0.60;;;0.60;;
13335;SDS011;6737;51.480;11.962;2022-09-27T12:20:28;0.60;;;0.60;;
13335;SDS011;6737;51.480;11.962;2022-09-27T12:23:00;1.27;;;0.60;;
13335;SDS011;6737;51.480;11.962;2022-09-27T12:25:33;0.50;;;0.50;;
13335;SDS011;6737;51.480;11.962;2022-09-27T12:33:56;0.50;;;0.50;;
13335;SDS011;6737;51.480;11.962;2022-09-27T12:36:31;0.60;;;0.60;;
13335;SDS011;6737;51.480;11.962;2022-09-27T12:39:18;1.00;;;0.70;;
13335;SDS011;6737;51.480;11.962;2022-09-27T12:41:54;0.70;;;0.70;;
13335;SDS011;6737;51.480;11.962;2022-09-27T12:44:37;0.57;;;0.50;;
13335;SDS011;6737;51.480;11.962;2022-09-27T12:52:36;0.80;;;0.70;;
13335;SDS011;6737;51.480;11.962;2022-09-27T12:58:16;0.90;;;0.60;;
13335;SDS011;6737;51.480;11.962;2022-09-27T13:12:02;0.60;;;0.60;;
13335;SDS011;6737;51.480;11.962;2022-09-27T13:14:53;0.67;;;0.67;;
13335;SDS011;6737;51.480;11.962;2022-09-27T13:31:16;2.10;;;0.80;;
13335;SDS011;6737;51.480;11.962;2022-09-27T13:34:02;0.80;;;0.80;;
13335;SDS011;6737;51.480;11.962;2022-09-27T13:36:30;1.00;;;0.87;;
13335;SDS011;6737;51.480;11.962;2022-09-27T13:42:17;1.07;;;0.73;;
13335;SDS011;6737;51.480;11.962;2022-09-27T13:50:24;1.37;;;0.90;;
13335;SDS011;6737;51.480;11.962;2022-09-27T13:55:45;1.00;;;0.90;;
13335;SDS011;6737;51.480;11.962;2022-09-27T14:01:26;1.27;;;0.93;;
13335;SDS011;6737;51.480;11.962;2022-09-27T14:04:00;1.73;;;0.90;;
13335;SDS011;6737;51.480;11.962;2022-09-27T14:06:35;1.13;;;0.80;;
13335;SDS011;6737;51.480;11.962;2022-09-27T14:09:16;0.70;;;0.70;;
13335;SDS011;6737;51.480;11.962;2022-09-27T14:11:55;0.60;;;0.60;;
13335;SDS011;6737;51.480;11.962;2022-09-27T14:14:25;0.60;;;0.53;;
13335;SDS011;6737;51.480;11.962;2022-09-27T14:16:54;1.00;;;0.50;;
13335;SDS011;6737;51.480;11.962;2022-09-27T14:19:24;0.67;;;0.60;;
13335;SDS011;6737;51.480;11.962;2022-09-27T14:21:50;0.77;;;0.70;;
13335;SDS011;6737;51.480;11.962;2022-09-27T14:26:48;0.83;;;0.50;;
13335;SDS011;6737;51.480;11.962;2022-09-27T14:29:16;0.50;;;0.50;;
13335;SDS011;6737;51.480;11.962;2022-09-27T14:31:44;0.53;;;0.53;;
13335;SDS011;6737;51.480;11.962;2022-09-27T14:34:13;0.47;;;0.47;;
13335;SDS011;6737;51.480;11.962;2022-09-27T14:36:39;0.60;;;0.60;;
13335;SDS011;6737;51.480;11.962;2022-09-27T14:39:28;0.40;;;0.40;;
13335;SDS011;6737;51.480;11.962;2022-09-27T14:41:56;0.50;;;0.50;;
13335;SDS011;6737;51.480;11.962;2022-09-27T14:44:27;0.50;;;0.50;;
13335;SDS011;6737;51.480;11.962;2022-09-27T14:47:08;0.73;;;0.50;;
13335;SDS011;6737;51.480;11.962;2022-09-27T14:49:47;0.60;;;0.60;;
13335;SDS011;6737;51.480;11.962;2022-09-27T14:52:19;0.50;;;0.50;;
13335;SDS011;6737;51.480;11.962;2022-09-27T14:55:09;0.60;;;0.60;;
13335;SDS011;6737;51.480;11.962;2022-09-27T14:57:45;0.60;;;0.60;;
13335;SDS011;6737;51.480;11.962;2022-09-27T15:00:30;0.50;;;0.50;;
13335;SDS011;6737;51.480;11.962;2022-09-27T15:03:01;0.60;;;0.60;;
13335;SDS011;6737;51.480;11.962;2022-09-27T15:05:30;0.80;;;0.50;;
13335;SDS011;6737;51.480;11.962;2022-09-27T15:07:58;0.80;;;0.50;;
13335;SDS011;6737;51.480;11.962;2022-09-27T15:10:29;0.50;;;0.50;;
13335;SDS011;6737;51.480;11.962;2022-09-27T15:12:57;0.60;;;0.60;;
13335;SDS011;6737;51.480;11.962;2022-09-27T15:15:26;0.60;;;0.60;;
13335;SDS011;6737;51.480;11.962;2022-09-27T15:18:00;0.63;;;0.63;;
13335;SDS011;6737;51.480;11.962;2022-09-27T15:20:29;1.60;;;0.60;;
13335;SDS011;6737;51.480;11.962;2022-09-27T15:23:00;0.50;;;0.50;;
13335;SDS011;6737;51.480;11.962;2022-09-27T15:25:34;0.63;;;0.63;;
13335;SDS011;6737;51.480;11.962;2022-09-27T15:30:42;0.60;;;0.60;;
13335;SDS011;6737;51.480;11.962;2022-09-27T15:33:27;0.60;;;0.60;;
13335;SDS011;6737;51.480;11.962;2022-09-27T15:36:00;0.57;;;0.57;;
13335;SDS011;6737;51.480;11.962;2022-09-27T15:38:29;0.60;;;0.60;;
13335;SDS011;6737;51.480;11.962;2022-09-27T15:41:14;0.60;;;0.60;;
13335;SDS011;6737;51.480;11.962;2022-09-27T15:43:49;0.60;;;0.50;;
13335;SDS011;6737;51.480;11.962;2022-09-27T15:46:36;0.70;;;0.70;;
13335;SDS011;6737;51.480;11.962;2022-09-27T15:49:17;0.40;;;0.40;;
13335;SDS011;6737;51.480;11.962;2022-09-27T15:51:50;0.40;;;0.40;;
13335;SDS011;6737;51.480;11.962;2022-09-27T15:54:21;1.53;;;0.60;;
13335;SDS011;6737;51.480;11.962;2022-09-27T15:56:49;0.60;;;0.60;;
13335;SDS011;6737;51.480;11.962;2022-09-27T15:59:20;0.77;;;0.53;;
13335;SDS011;6737;51.480;11.962;2022-09-27T16:01:49;0.50;;;0.50;;
13335;SDS011;6737;51.480;11.962;2022-09-27T16:04:19;0.50;;;0.50;;
13335;SDS011;6737;51.480;11.962;2022-09-27T16:06:45;0.50;;;0.50;;
13335;SDS011;6737;51.480;11.962;2022-09-27T16:09:14;0.50;;;0.50;;
13335;SDS011;6737;51.480;11.962;2022-09-27T16:11:43;0.60;;;0.60;;
13335;SDS011;6737;51.480;11.962;2022-09-27T16:14:10;0.50;;;0.50;;
13335;SDS011;6737;51.480;11.962;2022-09-27T16:16:48;0.70;;;0.60;;
13335;SDS011;6737;51.480;11.962;2022-09-27T16:19:16;0.70;;;0.50;;
13335;SDS011;6737;51.480;11.962;2022-09-27T16:21:42;1.00;;;0.60;;
13335;SDS011;6737;51.480;11.962;2022-09-27T16:24:11;0.47;;;0.47;;
13335;SDS011;6737;51.480;11.962;2022-09-27T16:26:37;0.60;;;0.60;;
13335;SDS011;6737;51.480;11.962;2022-09-27T16:29:04;1.23;;;0.60;;
13335;SDS011;6737;51.480;11.962;2022-09-27T16:31:34;0.50;;;0.50;;
13335;SDS011;6737;51.480;11.962;2022-09-27T16:34:00;0.53;;;0.50;;
13335;SDS011;6737;51.480;11.962;2022-09-27T16:36:26;0.50;;;0.50;;
13335;SDS011;6737;51.480;11.962;2022-09-27T16:38:52;0.57;;;0.57;;
13335;SDS011;6737;51.480;11.962;2022-09-27T16:41:19;0.83;;;0.50;;
13335;SDS011;6737;51.480;11.962;2022-09-27T16:43:46;0.60;;;0.60;;
13335;SDS011;6737;51.480;11.962;2022-09-27T16:46:13;1.30;;;0.50;;
13335;SDS011;6737;51.480;11.962;2022-09-27T16:48:43;0.50;;;0.50;;
13335;SDS011;6737;51.480;11.962;2022-09-27T16:51:12;0.50;;;0.50;;
13335;SDS011;6737;51.480;11.962;2022-09-27T16:53:59;1.73;;;1.33;;
13335;SDS011;6737;51.480;11.962;2022-09-27T16:56:26;4.10;;;2.40;;
13335;SDS011;6737;51.480;11.962;2022-09-27T16:58:53;6.43;;;3.90;;
13335;SDS011;6737;51.480;11.962;2022-09-27T17:01:19;2.80;;;1.90;;
13335;SDS011;6737;51.480;11.962;2022-09-27T17:03:49;2.27;;;1.47;;
13335;SDS011;6737;51.480;11.962;2022-09-27T17:06:16;1.40;;;1.13;;
13335;SDS011;6737;51.480;11.962;2022-09-27T17:08:43;2.20;;;1.10;;
13335;SDS011;6737;51.480;11.962;2022-09-27T17:11:13;0.80;;;0.80;;
13335;SDS011;6737;51.480;11.962;2022-09-27T17:13:41;0.70;;;0.70;;
13335;SDS011;6737;51.480;11.962;2022-09-27T17:16:08;1.53;;;0.80;;
13335;SDS011;6737;51.480;11.962;2022-09-27T17:18:38;0.90;;;0.90;;
13335;SDS011;6737;51.480;11.962;2022-09-27T17:21:04;1.40;;;1.30;;
13335;SDS011;6737;51.480;11.962;2022-09-27T17:23:32;1.27;;;1.17;;
13335;SDS011;6737;51.480;11.962;2022-09-27T17:26:05;1.30;;;1.20;;
13335;SDS011;6737;51.480;11.962;2022-09-27T17:28:34;1.40;;;1.30;;
13335;SDS011;6737;51.480;11.962;2022-09-27T17:31:01;1.80;;;1.30;;
13335;SDS011;6737;51.480;11.962;2022-09-27T17:33:34;1.90;;;1.17;;
13335;SDS011;6737;51.480;11.962;2022-09-27T17:36:10;1.47;;;0.83;;
13335;SDS011;6737;51.480;11.962;2022-09-27T17:38:39;1.23;;;1.00;;
13335;SDS011;6737;51.480;11.962;2022-09-27T17:41:06;0.80;;;0.80;;
13335;SDS011;6737;51.480;11.962;2022-09-27T17:43:37;0.80;;;0.80;;
13335;SDS011;6737;51.480;11.962;2022-09-27T17:46:06;1.00;;;0.80;;
13335;SDS011;6737;51.480;11.962;2022-09-27T17:48:35;1.00;;;0.90;;
13335;SDS011;6737;51.480;11.962;2022-09-27T17:51:19;0.93;;;0.80;;
13335;SDS011;6737;51.480;11.962;2022-09-27T17:53:46;1.63;;;0.90;;